sensor_id;sensor_type;location;lat;lon;timestamp;P1;durP1;ratioP1;P2;durP2;ratioP2
70725;SDS011;58304;53.104;6.022;2022-10-30T00:01:57;16.38;;;6.88;;
70725;SDS011;58304;53.104;6.022;2022-10-30T00:04:23;16.85;;;7.35;;
70725;SDS011;58304;53.104;6.022;2022-10-30T00:06:49;15.95;;;6.80;;
70725;SDS011;58304;53.104;6.022;2022-10-30T00:09:14;20.05;;;6.75;;
70725;SDS011;58304;53.104;6.022;2022-10-30T00:11:40;17.55;;;6.95;;
70725;SDS011;58304;53.104;6.022;2022-10-30T00:14:06;15.82;;;6.85;;
70725;SDS011;58304;53.104;6.022;2022-10-30T00:16:32;19.17;;;6.85;;
70725;SDS011;58304;53.104;6.022;2022-10-30T00:18:58;15.88;;;6.25;;
70725;SDS011;58304;53.104;6.022;2022-10-30T00:21:23;20.00;;;7.32;;
70725;SDS011;58304;53.104;6.022;2022-10-30T00:23:50;12.52;;;6.32;;
70725;SDS011;58304;53.104;6.022;2022-10-30T00:26:17;16.65;;;6.70;;
70725;SDS011;58304;53.104;6.022;2022-10-30T00:28:48;15.82;;;7.10;;
70725;SDS011;58304;53.104;6.022;2022-10-30T00:31:17;18.83;;;7.07;;
70725;SDS011;58304;53.104;6.022;2022-10-30T00:33:43;14.82;;;6.88;;
70725;SDS011;58304;53.104;6.022;2022-10-30T00:36:12;17.80;;;7.30;;
70725;SDS011;58304;53.104;6.022;2022-10-30T00:38:38;13.90;;;6.32;;
70725;SDS011;58304;53.104;6.022;2022-10-30T00:41:03;14.10;;;6.95;;
70725;SDS011;58304;53.104;6.022;2022-10-30T00:43:36;15.07;;;7.22;;
70725;SDS011;58304;53.104;6.022;2022-10-30T00:49:25;17.65;;;7.55;;
70725;SDS011;58304;53.104;6.022;2022-10-30T00:51:46;21.40;;;7.28;;
70725;SDS011;58304;53.104;6.022;2022-10-30T00:54:16;15.05;;;7.03;;
70725;SDS011;58304;53.104;6.022;2022-10-30T00:56:42;16.08;;;7.30;;
70725;SDS011;58304;53.104;6.022;2022-10-30T00:59:11;18.48;;;6.80;;
70725;SDS011;58304;53.104;6.022;2022-10-30T01:01:41;18.95;;;7.43;;
70725;SDS011;58304;53.104;6.022;2022-10-30T01:04:09;14.98;;;7.18;;
70725;SDS011;58304;53.104;6.022;2022-10-30T01:06:38;18.30;;;7.28;;
70725;SDS011;58304;53.104;6.022;2022-10-30T01:09:05;14.13;;;6.85;;
70725;SDS011;58304;53.104;6.022;2022-10-30T01:11:31;14.52;;;6.88;;
70725;SDS011;58304;53.104;6.022;2022-10-30T01:13:57;12.23;;;6.57;;
70725;SDS011;58304;53.104;6.022;2022-10-30T01:26:51;16.27;;;7.47;;
70725;SDS011;58304;53.104;6.022;2022-10-30T01:37:58;17.85;;;6.90;;
70725;SDS011;58304;53.104;6.022;2022-10-30T01:40:26;14.80;;;7.15;;
70725;SDS011;58304;53.104;6.022;2022-10-30T01:42:53;15.85;;;7.13;;
70725;SDS011;58304;53.104;6.022;2022-10-30T01:50:59;17.30;;;7.22;;
70725;SDS011;58304;53.104;6.022;2022-10-30T01:53:47;14.73;;;6.38;;
70725;SDS011;58304;53.104;6.022;2022-10-30T01:56:38;13.18;;;6.72;;
70725;SDS011;58304;53.104;6.022;2022-10-30T01:59:25;11.70;;;6.38;;
70725;SDS011;58304;53.104;6.022;2022-10-30T02:01:57;15.90;;;6.63;;
70725;SDS011;58304;53.104;6.022;2022-10-30T02:04:23;16.02;;;6.30;;
70725;SDS011;58304;53.104;6.022;2022-10-30T02:06:49;13.15;;;6.28;;
70725;SDS011;58304;53.104;6.022;2022-10-30T02:09:15;14.75;;;6.75;;
70725;SDS011;58304;53.104;6.022;2022-10-30T02:11:41;12.63;;;6.07;;
70725;SDS011;58304;53.104;6.022;2022-10-30T02:14:09;12.55;;;6.70;;
70725;SDS011;58304;53.104;6.022;2022-10-30T02:16:43;16.27;;;6.50;;
70725;SDS011;58304;53.104;6.022;2022-10-30T02:19:11;16.10;;;7.00;;
70725;SDS011;58304;53.104;6.022;2022-10-30T02:21:37;14.63;;;6.53;;
70725;SDS011;58304;53.104;6.022;2022-10-30T02:24:03;17.35;;;6.55;;
70725;SDS011;58304;53.104;6.022;2022-10-30T02:26:28;12.90;;;6.47;;
70725;SDS011;58304;53.104;6.022;2022-10-30T02:28:54;18.60;;;6.85;;
70725;SDS011;58304;53.104;6.022;2022-10-30T02:31:19;14.57;;;6.43;;
70725;SDS011;58304;53.104;6.022;2022-10-30T02:33:45;15.88;;;6.95;;
70725;SDS011;58304;53.104;6.022;2022-10-30T02:36:11;17.33;;;6.93;;
70725;SDS011;58304;53.104;6.022;2022-10-30T02:38:39;21.17;;;7.15;;
70725;SDS011;58304;53.104;6.022;2022-10-30T02:41:05;14.85;;;6.82;;
70725;SDS011;58304;53.104;6.022;2022-10-30T02:43:31;14.30;;;6.20;;
70725;SDS011;58304;53.104;6.022;2022-10-30T02:45:57;16.30;;;7.07;;
70725;SDS011;58304;53.104;6.022;2022-10-30T02:48:22;20.33;;;7.30;;
70725;SDS011;58304;53.104;6.022;2022-10-30T02:50:48;20.73;;;6.82;;
70725;SDS011;58304;53.104;6.022;2022-10-30T02:53:13;17.38;;;7.10;;
70725;SDS011;58304;53.104;6.022;2022-10-30T02:55:39;14.18;;;7.18;;
70725;SDS011;58304;53.104;6.022;2022-10-30T02:58:04;17.55;;;6.53;;
70725;SDS011;58304;53.104;6.022;2022-10-30T03:00:30;22.05;;;6.78;;
70725;SDS011;58304;53.104;6.022;2022-10-30T03:02:56;17.58;;;7.30;;
70725;SDS011;58304;53.104;6.022;2022-10-30T03:05:22;17.70;;;6.38;;
70725;SDS011;58304;53.104;6.022;2022-10-30T03:07:48;16.38;;;6.85;;
70725;SDS011;58304;53.104;6.022;2022-10-30T03:10:15;14.75;;;6.68;;
70725;SDS011;58304;53.104;6.022;2022-10-30T03:12:41;15.45;;;6.78;;
70725;SDS011;58304;53.104;6.022;2022-10-30T03:15:07;15.85;;;6.38;;
70725;SDS011;58304;53.104;6.022;2022-10-30T03:17:33;11.88;;;6.10;;
70725;SDS011;58304;53.104;6.022;2022-10-30T03:19:59;15.65;;;6.80;;
70725;SDS011;58304;53.104;6.022;2022-10-30T03:22:24;16.33;;;6.75;;
70725;SDS011;58304;53.104;6.022;2022-10-30T03:24:50;17.15;;;6.93;;
70725;SDS011;58304;53.104;6.022;2022-10-30T03:27:15;13.80;;;7.20;;
70725;SDS011;58304;53.104;6.022;2022-10-30T03:29:41;14.75;;;6.85;;
70725;SDS011;58304;53.104;6.022;2022-10-30T03:32:10;16.40;;;7.22;;
70725;SDS011;58304;53.104;6.022;2022-10-30T03:34:36;15.85;;;6.90;;
70725;SDS011;58304;53.104;6.022;2022-10-30T03:37:02;16.95;;;7.13;;
70725;SDS011;58304;53.104;6.022;2022-10-30T03:39:28;13.43;;;7.05;;
70725;SDS011;58304;53.104;6.022;2022-10-30T03:41:53;11.45;;;6.47;;
70725;SDS011;58304;53.104;6.022;2022-10-30T03:44:19;24.75;;;7.03;;
70725;SDS011;58304;53.104;6.022;2022-10-30T03:46:45;18.77;;;7.25;;
70725;SDS011;58304;53.104;6.022;2022-10-30T03:49:10;15.00;;;6.05;;
70725;SDS011;58304;53.104;6.022;2022-10-30T03:51:36;14.88;;;7.07;;
70725;SDS011;58304;53.104;6.022;2022-10-30T03:54:01;17.00;;;6.18;;
70725;SDS011;58304;53.104;6.022;2022-10-30T03:56:27;18.23;;;6.60;;
70725;SDS011;58304;53.104;6.022;2022-10-30T03:58:53;13.10;;;6.85;;
70725;SDS011;58304;53.104;6.022;2022-10-30T04:01:18;16.92;;;6.78;;
70725;SDS011;58304;53.104;6.022;2022-10-30T04:03:44;17.27;;;7.20;;
70725;SDS011;58304;53.104;6.022;2022-10-30T04:06:10;14.55;;;6.95;;
70725;SDS011;58304;53.104;6.022;2022-10-30T04:08:35;14.85;;;6.78;;
70725;SDS011;58304;53.104;6.022;2022-10-30T04:11:01;14.52;;;7.20;;
70725;SDS011;58304;53.104;6.022;2022-10-30T04:13:26;19.15;;;7.90;;
70725;SDS011;58304;53.104;6.022;2022-10-30T04:15:52;18.67;;;7.60;;
70725;SDS011;58304;53.104;6.022;2022-10-30T04:18:18;18.80;;;7.55;;
70725;SDS011;58304;53.104;6.022;2022-10-30T04:20:44;18.23;;;7.43;;
70725;SDS011;58304;53.104;6.022;2022-10-30T04:23:16;15.40;;;7.07;;
70725;SDS011;58304;53.104;6.022;2022-10-30T04:25:43;16.00;;;7.47;;
70725;SDS011;58304;53.104;6.022;2022-10-30T04:28:09;19.45;;;7.68;;
70725;SDS011;58304;53.104;6.022;2022-10-30T04:30:35;14.35;;;7.50;;
70725;SDS011;58304;53.104;6.022;2022-10-30T04:33:01;19.52;;;8.07;;
70725;SDS011;58304;53.104;6.022;2022-10-30T04:35:32;20.13;;;8.05;;
70725;SDS011;58304;53.104;6.022;2022-10-30T04:38:10;14.90;;;6.65;;
70725;SDS011;58304;53.104;6.022;2022-10-30T04:40:41;15.48;;;7.07;;
70725;SDS011;58304;53.104;6.022;2022-10-30T04:43:07;19.17;;;7.57;;
70725;SDS011;58304;53.104;6.022;2022-10-30T04:45:34;17.35;;;7.40;;
70725;SDS011;58304;53.104;6.022;2022-10-30T04:48:01;16.60;;;7.25;;
70725;SDS011;58304;53.104;6.022;2022-10-30T04:50:31;17.52;;;7.43;;
70725;SDS011;58304;53.104;6.022;2022-10-30T04:52:59;17.10;;;7.30;;
70725;SDS011;58304;53.104;6.022;2022-10-30T04:55:32;17.23;;;7.00;;
70725;SDS011;58304;53.104;6.022;2022-10-30T04:57:58;16.13;;;7.57;;
70725;SDS011;58304;53.104;6.022;2022-10-30T05:00:26;15.07;;;7.68;;
70725;SDS011;58304;53.104;6.022;2022-10-30T05:02:56;17.60;;;7.55;;
70725;SDS011;58304;53.104;6.022;2022-10-30T05:05:22;14.90;;;6.97;;
70725;SDS011;58304;53.104;6.022;2022-10-30T05:07:48;18.98;;;7.80;;
70725;SDS011;58304;53.104;6.022;2022-10-30T05:10:14;18.02;;;7.45;;
70725;SDS011;58304;53.104;6.022;2022-10-30T05:12:40;19.40;;;7.78;;
70725;SDS011;58304;53.104;6.022;2022-10-30T05:15:09;18.45;;;7.65;;
70725;SDS011;58304;53.104;6.022;2022-10-30T05:17:36;16.92;;;7.68;;
70725;SDS011;58304;53.104;6.022;2022-10-30T05:20:02;19.52;;;7.75;;
70725;SDS011;58304;53.104;6.022;2022-10-30T05:22:28;17.45;;;7.72;;
70725;SDS011;58304;53.104;6.022;2022-10-30T05:24:53;13.77;;;6.60;;
70725;SDS011;58304;53.104;6.022;2022-10-30T05:27:19;15.13;;;6.95;;
70725;SDS011;58304;53.104;6.022;2022-10-30T05:29:45;17.10;;;7.25;;
70725;SDS011;58304;53.104;6.022;2022-10-30T05:32:10;14.48;;;6.80;;
70725;SDS011;58304;53.104;6.022;2022-10-30T05:34:36;17.42;;;7.25;;
70725;SDS011;58304;53.104;6.022;2022-10-30T05:37:01;24.55;;;7.93;;
70725;SDS011;58304;53.104;6.022;2022-10-30T05:39:27;20.83;;;7.18;;
70725;SDS011;58304;53.104;6.022;2022-10-30T05:41:52;12.55;;;6.95;;
70725;SDS011;58304;53.104;6.022;2022-10-30T05:44:18;17.23;;;7.60;;
70725;SDS011;58304;53.104;6.022;2022-10-30T05:46:43;13.30;;;5.20;;
70725;SDS011;58304;53.104;6.022;2022-10-30T05:49:09;18.48;;;7.80;;
70725;SDS011;58304;53.104;6.022;2022-10-30T05:51:35;13.25;;;6.40;;
70725;SDS011;58304;53.104;6.022;2022-10-30T05:54:00;12.35;;;6.78;;
70725;SDS011;58304;53.104;6.022;2022-10-30T05:56:26;15.00;;;6.75;;
70725;SDS011;58304;53.104;6.022;2022-10-30T05:58:51;14.63;;;6.68;;
70725;SDS011;58304;53.104;6.022;2022-10-30T06:01:17;13.57;;;7.20;;
70725;SDS011;58304;53.104;6.022;2022-10-30T06:03:43;15.85;;;6.88;;
70725;SDS011;58304;53.104;6.022;2022-10-30T06:06:09;17.73;;;7.03;;
70725;SDS011;58304;53.104;6.022;2022-10-30T06:08:34;12.85;;;6.85;;
70725;SDS011;58304;53.104;6.022;2022-10-30T06:11:00;16.85;;;7.55;;
70725;SDS011;58304;53.104;6.022;2022-10-30T06:13:25;18.33;;;7.32;;
70725;SDS011;58304;53.104;6.022;2022-10-30T06:15:53;16.05;;;7.28;;
70725;SDS011;58304;53.104;6.022;2022-10-30T06:18:20;18.10;;;7.55;;
70725;SDS011;58304;53.104;6.022;2022-10-30T06:20:46;15.50;;;7.22;;
70725;SDS011;58304;53.104;6.022;2022-10-30T06:23:11;17.02;;;6.70;;
70725;SDS011;58304;53.104;6.022;2022-10-30T06:25:37;14.18;;;7.43;;
70725;SDS011;58304;53.104;6.022;2022-10-30T06:28:03;12.60;;;7.28;;
70725;SDS011;58304;53.104;6.022;2022-10-30T06:30:29;15.25;;;5.47;;
70725;SDS011;58304;53.104;6.022;2022-10-30T06:32:58;13.55;;;4.80;;
70725;SDS011;58304;53.104;6.022;2022-10-30T06:35:25;11.35;;;5.60;;
70725;SDS011;58304;53.104;6.022;2022-10-30T06:37:51;13.65;;;5.40;;
70725;SDS011;58304;53.104;6.022;2022-10-30T06:40:18;13.70;;;5.63;;
70725;SDS011;58304;53.104;6.022;2022-10-30T06:42:45;9.18;;;4.55;;
70725;SDS011;58304;53.104;6.022;2022-10-30T06:45:11;9.50;;;4.50;;
70725;SDS011;58304;53.104;6.022;2022-10-30T06:47:38;11.23;;;4.75;;
70725;SDS011;58304;53.104;6.022;2022-10-30T06:50:05;10.50;;;4.32;;
70725;SDS011;58304;53.104;6.022;2022-10-30T06:52:31;10.45;;;4.15;;
70725;SDS011;58304;53.104;6.022;2022-10-30T06:54:57;9.45;;;4.40;;
70725;SDS011;58304;53.104;6.022;2022-10-30T06:57:22;7.95;;;3.97;;
70725;SDS011;58304;53.104;6.022;2022-10-30T06:59:48;9.38;;;3.90;;
70725;SDS011;58304;53.104;6.022;2022-10-30T07:02:14;11.93;;;4.57;;
70725;SDS011;58304;53.104;6.022;2022-10-30T07:04:39;7.65;;;4.15;;
70725;SDS011;58304;53.104;6.022;2022-10-30T07:07:05;11.20;;;4.80;;
70725;SDS011;58304;53.104;6.022;2022-10-30T07:09:31;9.40;;;4.18;;
70725;SDS011;58304;53.104;6.022;2022-10-30T07:11:56;13.50;;;5.25;;
70725;SDS011;58304;53.104;6.022;2022-10-30T07:14:22;10.30;;;5.18;;
70725;SDS011;58304;53.104;6.022;2022-10-30T07:16:48;14.80;;;5.85;;
70725;SDS011;58304;53.104;6.022;2022-10-30T07:19:14;14.05;;;6.22;;
70725;SDS011;58304;53.104;6.022;2022-10-30T07:21:39;15.50;;;6.32;;
70725;SDS011;58304;53.104;6.022;2022-10-30T07:24:05;12.40;;;6.30;;
70725;SDS011;58304;53.104;6.022;2022-10-30T07:26:31;18.23;;;6.50;;
70725;SDS011;58304;53.104;6.022;2022-10-30T07:29:01;13.80;;;7.00;;
70725;SDS011;58304;53.104;6.022;2022-10-30T07:31:28;13.80;;;6.28;;
70725;SDS011;58304;53.104;6.022;2022-10-30T07:33:54;12.48;;;5.80;;
70725;SDS011;58304;53.104;6.022;2022-10-30T07:36:19;19.40;;;6.15;;
70725;SDS011;58304;53.104;6.022;2022-10-30T07:38:46;15.02;;;6.97;;
70725;SDS011;58304;53.104;6.022;2022-10-30T07:41:12;16.35;;;6.80;;
70725;SDS011;58304;53.104;6.022;2022-10-30T07:43:38;17.00;;;6.88;;
70725;SDS011;58304;53.104;6.022;2022-10-30T07:46:04;13.35;;;6.88;;
70725;SDS011;58304;53.104;6.022;2022-10-30T07:48:29;16.95;;;7.05;;
70725;SDS011;58304;53.104;6.022;2022-10-30T07:50:55;17.35;;;7.10;;
70725;SDS011;58304;53.104;6.022;2022-10-30T07:53:21;18.17;;;6.78;;
70725;SDS011;58304;53.104;6.022;2022-10-30T07:55:46;14.18;;;6.95;;
70725;SDS011;58304;53.104;6.022;2022-10-30T07:58:12;16.08;;;6.80;;
70725;SDS011;58304;53.104;6.022;2022-10-30T08:00:37;11.38;;;5.72;;
70725;SDS011;58304;53.104;6.022;2022-10-30T08:03:03;13.07;;;6.07;;
70725;SDS011;58304;53.104;6.022;2022-10-30T08:05:28;12.98;;;6.10;;
70725;SDS011;58304;53.104;6.022;2022-10-30T08:07:54;15.25;;;6.53;;
70725;SDS011;58304;53.104;6.022;2022-10-30T08:10:20;13.35;;;5.55;;
70725;SDS011;58304;53.104;6.022;2022-10-30T08:12:45;11.57;;;5.63;;
70725;SDS011;58304;53.104;6.022;2022-10-30T08:15:12;13.18;;;5.70;;
70725;SDS011;58304;53.104;6.022;2022-10-30T08:17:45;13.57;;;5.95;;
70725;SDS011;58304;53.104;6.022;2022-10-30T08:20:13;12.82;;;5.72;;
70725;SDS011;58304;53.104;6.022;2022-10-30T08:22:58;16.27;;;6.40;;
70725;SDS011;58304;53.104;6.022;2022-10-30T08:25:24;14.20;;;5.40;;
70725;SDS011;58304;53.104;6.022;2022-10-30T08:27:54;12.95;;;5.45;;
70725;SDS011;58304;53.104;6.022;2022-10-30T08:30:22;11.55;;;5.50;;
70725;SDS011;58304;53.104;6.022;2022-10-30T08:32:49;15.00;;;5.28;;
70725;SDS011;58304;53.104;6.022;2022-10-30T08:35:15;16.02;;;5.30;;
70725;SDS011;58304;53.104;6.022;2022-10-30T08:37:41;10.20;;;4.93;;
70725;SDS011;58304;53.104;6.022;2022-10-30T08:40:08;12.32;;;5.22;;
70725;SDS011;58304;53.104;6.022;2022-10-30T08:42:35;18.60;;;5.97;;
70725;SDS011;58304;53.104;6.022;2022-10-30T08:45:01;13.07;;;5.35;;
70725;SDS011;58304;53.104;6.022;2022-10-30T08:47:26;14.77;;;5.35;;
70725;SDS011;58304;53.104;6.022;2022-10-30T08:49:52;14.02;;;5.20;;
70725;SDS011;58304;53.104;6.022;2022-10-30T08:52:17;13.32;;;5.40;;
70725;SDS011;58304;53.104;6.022;2022-10-30T08:54:43;16.13;;;5.68;;
70725;SDS011;58304;53.104;6.022;2022-10-30T08:57:09;15.90;;;5.57;;
70725;SDS011;58304;53.104;6.022;2022-10-30T08:59:34;14.93;;;6.57;;
70725;SDS011;58304;53.104;6.022;2022-10-30T09:02:00;16.65;;;6.63;;
70725;SDS011;58304;53.104;6.022;2022-10-30T09:04:25;12.55;;;6.65;;
70725;SDS011;58304;53.104;6.022;2022-10-30T09:06:51;13.80;;;6.22;;
70725;SDS011;58304;53.104;6.022;2022-10-30T09:09:16;18.40;;;6.68;;
70725;SDS011;58304;53.104;6.022;2022-10-30T09:11:42;16.33;;;6.53;;
70725;SDS011;58304;53.104;6.022;2022-10-30T09:14:07;14.98;;;6.38;;
70725;SDS011;58304;53.104;6.022;2022-10-30T09:16:33;14.70;;;6.50;;
70725;SDS011;58304;53.104;6.022;2022-10-30T09:19:01;21.80;;;6.50;;
70725;SDS011;58304;53.104;6.022;2022-10-30T09:21:27;15.63;;;6.10;;
70725;SDS011;58304;53.104;6.022;2022-10-30T09:23:52;13.98;;;5.97;;
70725;SDS011;58304;53.104;6.022;2022-10-30T09:26:18;12.80;;;5.57;;
70725;SDS011;58304;53.104;6.022;2022-10-30T09:28:44;13.43;;;5.20;;
70725;SDS011;58304;53.104;6.022;2022-10-30T09:31:09;10.48;;;4.97;;
70725;SDS011;58304;53.104;6.022;2022-10-30T09:33:35;10.80;;;5.45;;
70725;SDS011;58304;53.104;6.022;2022-10-30T09:36:00;14.93;;;5.10;;
70725;SDS011;58304;53.104;6.022;2022-10-30T09:38:27;15.23;;;4.90;;
70725;SDS011;58304;53.104;6.022;2022-10-30T09:52:05;18.63;;;5.10;;
70725;SDS011;58304;53.104;6.022;2022-10-30T10:00:14;13.75;;;4.97;;
70725;SDS011;58304;53.104;6.022;2022-10-30T10:05:39;11.90;;;5.10;;
70725;SDS011;58304;53.104;6.022;2022-10-30T10:08:14;12.32;;;5.20;;
70725;SDS011;58304;53.104;6.022;2022-10-30T10:11:07;14.27;;;5.28;;
70725;SDS011;58304;53.104;6.022;2022-10-30T10:13:45;8.43;;;4.93;;
70725;SDS011;58304;53.104;6.022;2022-10-30T10:16:24;9.60;;;4.80;;
70725;SDS011;58304;53.104;6.022;2022-10-30T10:18:57;9.48;;;5.00;;
70725;SDS011;58304;53.104;6.022;2022-10-30T10:21:32;10.85;;;5.28;;
70725;SDS011;58304;53.104;6.022;2022-10-30T10:24:10;11.60;;;5.43;;
70725;SDS011;58304;53.104;6.022;2022-10-30T10:26:53;13.13;;;5.05;;
70725;SDS011;58304;53.104;6.022;2022-10-30T10:29:31;14.15;;;5.13;;
70725;SDS011;58304;53.104;6.022;2022-10-30T10:32:16;11.30;;;5.25;;
70725;SDS011;58304;53.104;6.022;2022-10-30T10:35:08;13.20;;;5.30;;
70725;SDS011;58304;53.104;6.022;2022-10-30T10:41:00;10.70;;;5.20;;
70725;SDS011;58304;53.104;6.022;2022-10-30T10:52:06;8.63;;;4.57;;
70725;SDS011;58304;53.104;6.022;2022-10-30T10:54:35;11.93;;;5.38;;
70725;SDS011;58304;53.104;6.022;2022-10-30T10:57:06;9.63;;;5.10;;
70725;SDS011;58304;53.104;6.022;2022-10-30T10:59:37;10.82;;;4.63;;
70725;SDS011;58304;53.104;6.022;2022-10-30T11:02:23;12.70;;;5.03;;
70725;SDS011;58304;53.104;6.022;2022-10-30T11:04:58;13.30;;;5.30;;
70725;SDS011;58304;53.104;6.022;2022-10-30T11:07:31;12.88;;;5.05;;
70725;SDS011;58304;53.104;6.022;2022-10-30T11:10:00;12.60;;;4.97;;
70725;SDS011;58304;53.104;6.022;2022-10-30T11:12:27;14.57;;;5.60;;
70725;SDS011;58304;53.104;6.022;2022-10-30T11:14:55;13.80;;;5.60;;
70725;SDS011;58304;53.104;6.022;2022-10-30T11:17:25;10.15;;;4.47;;
70725;SDS011;58304;53.104;6.022;2022-10-30T11:20:13;15.90;;;5.13;;
70725;SDS011;58304;53.104;6.022;2022-10-30T11:22:43;12.77;;;5.53;;
70725;SDS011;58304;53.104;6.022;2022-10-30T11:27:53;9.13;;;4.97;;
70725;SDS011;58304;53.104;6.022;2022-10-30T11:30:22;10.60;;;4.95;;
70725;SDS011;58304;53.104;6.022;2022-10-30T11:32:50;9.60;;;4.82;;
70725;SDS011;58304;53.104;6.022;2022-10-30T11:35:16;12.70;;;4.97;;
70725;SDS011;58304;53.104;6.022;2022-10-30T11:37:45;12.25;;;5.60;;
70725;SDS011;58304;53.104;6.022;2022-10-30T11:42:41;15.98;;;6.00;;
70725;SDS011;58304;53.104;6.022;2022-10-30T11:45:24;10.63;;;5.10;;
70725;SDS011;58304;53.104;6.022;2022-10-30T11:47:53;12.10;;;5.30;;
70725;SDS011;58304;53.104;6.022;2022-10-30T11:50:21;14.20;;;5.72;;
70725;SDS011;58304;53.104;6.022;2022-10-30T11:52:49;12.10;;;6.22;;
70725;SDS011;58304;53.104;6.022;2022-10-30T11:55:40;13.80;;;5.90;;
70725;SDS011;58304;53.104;6.022;2022-10-30T11:58:16;14.73;;;5.82;;
70725;SDS011;58304;53.104;6.022;2022-10-30T12:00:59;15.93;;;5.75;;
70725;SDS011;58304;53.104;6.022;2022-10-30T12:03:34;13.30;;;6.53;;
70725;SDS011;58304;53.104;6.022;2022-10-30T12:06:10;14.75;;;6.65;;
70725;SDS011;58304;53.104;6.022;2022-10-30T12:08:57;15.10;;;6.50;;
70725;SDS011;58304;53.104;6.022;2022-10-30T12:11:28;14.30;;;6.10;;
70725;SDS011;58304;53.104;6.022;2022-10-30T12:16:24;14.00;;;5.95;;
70725;SDS011;58304;53.104;6.022;2022-10-30T12:19:01;16.30;;;6.00;;
70725;SDS011;58304;53.104;6.022;2022-10-30T12:21:37;14.32;;;5.38;;
70725;SDS011;58304;53.104;6.022;2022-10-30T12:24:05;16.70;;;5.72;;
70725;SDS011;58304;53.104;6.022;2022-10-30T12:26:44;13.88;;;5.70;;
70725;SDS011;58304;53.104;6.022;2022-10-30T12:29:13;16.90;;;5.75;;
70725;SDS011;58304;53.104;6.022;2022-10-30T12:31:49;15.15;;;5.70;;
70725;SDS011;58304;53.104;6.022;2022-10-30T12:34:40;16.05;;;5.75;;
70725;SDS011;58304;53.104;6.022;2022-10-30T12:37:25;12.20;;;5.55;;
70725;SDS011;58304;53.104;6.022;2022-10-30T12:42:25;15.52;;;5.88;;
70725;SDS011;58304;53.104;6.022;2022-10-30T12:50:19;16.52;;;5.90;;
70725;SDS011;58304;53.104;6.022;2022-10-30T12:55:37;11.70;;;5.63;;
70725;SDS011;58304;53.104;6.022;2022-10-30T12:58:26;12.27;;;5.23;;
70725;SDS011;58304;53.104;6.022;2022-10-30T13:06:34;14.05;;;6.10;;
70725;SDS011;58304;53.104;6.022;2022-10-30T13:09:23;17.98;;;6.32;;
70725;SDS011;58304;53.104;6.022;2022-10-30T13:31:25;18.02;;;6.80;;
70725;SDS011;58304;53.104;6.022;2022-10-30T13:34:08;18.67;;;7.32;;
70725;SDS011;58304;53.104;6.022;2022-10-30T13:37:04;15.02;;;6.45;;
70725;SDS011;58304;53.104;6.022;2022-10-30T13:39:59;18.25;;;6.70;;
70725;SDS011;58304;53.104;6.022;2022-10-30T13:42:42;16.00;;;6.85;;
70725;SDS011;58304;53.104;6.022;2022-10-30T13:53:47;22.25;;;7.55;;
70725;SDS011;58304;53.104;6.022;2022-10-30T13:56:17;16.50;;;6.93;;
70725;SDS011;58304;53.104;6.022;2022-10-30T13:58:49;19.08;;;7.20;;
70725;SDS011;58304;53.104;6.022;2022-10-30T14:01:30;21.15;;;7.18;;
70725;SDS011;58304;53.104;6.022;2022-10-30T14:06:44;17.23;;;7.32;;
70725;SDS011;58304;53.104;6.022;2022-10-30T14:09:20;15.60;;;6.55;;
70725;SDS011;58304;53.104;6.022;2022-10-30T14:11:59;18.52;;;7.20;;
70725;SDS011;58304;53.104;6.022;2022-10-30T14:14:45;18.30;;;7.25;;
70725;SDS011;58304;53.104;6.022;2022-10-30T14:17:15;18.73;;;7.10;;
70725;SDS011;58304;53.104;6.022;2022-10-30T14:22:29;16.13;;;6.93;;
70725;SDS011;58304;53.104;6.022;2022-10-30T14:24:56;16.88;;;7.10;;
70725;SDS011;58304;53.104;6.022;2022-10-30T14:27:29;19.50;;;6.60;;
70725;SDS011;58304;53.104;6.022;2022-10-30T14:29:56;14.70;;;6.67;;
70725;SDS011;58304;53.104;6.022;2022-10-30T14:37:15;15.23;;;6.53;;
70725;SDS011;58304;53.104;6.022;2022-10-30T14:39:45;14.77;;;6.93;;
70725;SDS011;58304;53.104;6.022;2022-10-30T14:42:24;17.30;;;6.35;;
70725;SDS011;58304;53.104;6.022;2022-10-30T14:45:13;13.60;;;6.25;;
70725;SDS011;58304;53.104;6.022;2022-10-30T14:47:51;17.85;;;6.82;;
70725;SDS011;58304;53.104;6.022;2022-10-30T14:59:07;20.33;;;6.32;;
70725;SDS011;58304;53.104;6.022;2022-10-30T15:07:26;17.88;;;6.68;;
70725;SDS011;58304;53.104;6.022;2022-10-30T15:15:27;17.83;;;7.13;;
70725;SDS011;58304;53.104;6.022;2022-10-30T15:17:54;16.70;;;7.40;;
70725;SDS011;58304;53.104;6.022;2022-10-30T15:20:41;23.25;;;7.03;;
70725;SDS011;58304;53.104;6.022;2022-10-30T15:23:14;25.95;;;7.07;;
70725;SDS011;58304;53.104;6.022;2022-10-30T15:25:45;19.27;;;6.15;;
70725;SDS011;58304;53.104;6.022;2022-10-30T15:28:18;13.30;;;5.85;;
70725;SDS011;58304;53.104;6.022;2022-10-30T15:33:45;15.32;;;6.30;;
70725;SDS011;58304;53.104;6.022;2022-10-30T15:36:15;18.10;;;6.03;;
70725;SDS011;58304;53.104;6.022;2022-10-30T15:38:41;14.65;;;7.15;;
70725;SDS011;58304;53.104;6.022;2022-10-30T15:41:07;14.52;;;6.78;;
70725;SDS011;58304;53.104;6.022;2022-10-30T15:43:34;18.27;;;6.82;;
70725;SDS011;58304;53.104;6.022;2022-10-30T15:46:09;17.73;;;6.57;;
70725;SDS011;58304;53.104;6.022;2022-10-30T15:48:36;17.77;;;7.63;;
70725;SDS011;58304;53.104;6.022;2022-10-30T15:53:45;13.85;;;6.60;;
70725;SDS011;58304;53.104;6.022;2022-10-30T15:59:05;16.13;;;6.57;;
70725;SDS011;58304;53.104;6.022;2022-10-30T16:01:33;14.38;;;6.75;;
70725;SDS011;58304;53.104;6.022;2022-10-30T16:04:18;19.50;;;6.35;;
70725;SDS011;58304;53.104;6.022;2022-10-30T16:06:55;19.15;;;7.80;;
70725;SDS011;58304;53.104;6.022;2022-10-30T16:09:22;16.38;;;6.63;;
70725;SDS011;58304;53.104;6.022;2022-10-30T16:11:49;21.42;;;5.80;;
70725;SDS011;58304;53.104;6.022;2022-10-30T16:14:19;15.38;;;5.60;;
70725;SDS011;58304;53.104;6.022;2022-10-30T16:16:48;18.48;;;6.28;;
70725;SDS011;58304;53.104;6.022;2022-10-30T16:19:19;17.90;;;7.00;;
70725;SDS011;58304;53.104;6.022;2022-10-30T16:21:54;15.38;;;6.85;;
70725;SDS011;58304;53.104;6.022;2022-10-30T16:24:22;14.93;;;6.30;;
70725;SDS011;58304;53.104;6.022;2022-10-30T16:29:29;10.50;;;6.10;;
70725;SDS011;58304;53.104;6.022;2022-10-30T16:31:55;16.88;;;6.90;;
70725;SDS011;58304;53.104;6.022;2022-10-30T16:34:23;17.15;;;6.80;;
70725;SDS011;58304;53.104;6.022;2022-10-30T16:36:51;10.52;;;5.80;;
70725;SDS011;58304;53.104;6.022;2022-10-30T16:39:19;9.82;;;5.20;;
70725;SDS011;58304;53.104;6.022;2022-10-30T16:41:45;9.13;;;4.97;;
70725;SDS011;58304;53.104;6.022;2022-10-30T16:44:16;12.10;;;5.95;;
70725;SDS011;58304;53.104;6.022;2022-10-30T16:46:52;21.33;;;6.68;;
70725;SDS011;58304;53.104;6.022;2022-10-30T16:49:30;17.05;;;6.65;;
70725;SDS011;58304;53.104;6.022;2022-10-30T16:52:02;14.15;;;6.90;;
70725;SDS011;58304;53.104;6.022;2022-10-30T16:54:30;15.57;;;7.05;;
70725;SDS011;58304;53.104;6.022;2022-10-30T16:56:59;16.73;;;7.95;;
70725;SDS011;58304;53.104;6.022;2022-10-30T16:59:29;17.77;;;7.63;;
70725;SDS011;58304;53.104;6.022;2022-10-30T17:01:58;19.20;;;7.53;;
70725;SDS011;58304;53.104;6.022;2022-10-30T17:04:30;20.05;;;8.43;;
70725;SDS011;58304;53.104;6.022;2022-10-30T17:07:04;17.73;;;8.55;;
70725;SDS011;58304;53.104;6.022;2022-10-30T17:09:42;15.50;;;6.85;;
70725;SDS011;58304;53.104;6.022;2022-10-30T17:12:20;17.42;;;7.68;;
70725;SDS011;58304;53.104;6.022;2022-10-30T17:17:35;14.52;;;7.40;;
70725;SDS011;58304;53.104;6.022;2022-10-30T17:22:51;15.55;;;8.25;;
70725;SDS011;58304;53.104;6.022;2022-10-30T17:25:30;20.50;;;8.77;;
70725;SDS011;58304;53.104;6.022;2022-10-30T17:28:00;17.17;;;7.72;;